createdAt,value
2019-05-26T00:00:15.271Z,55.37
2019-05-26T00:03:23.123Z,53.33
2019-05-26T00:06:31.151Z,56.27
2019-05-26T00:09:39.178Z,59.07
2019-05-26T00:12:49.735Z,53.70
2019-05-26T00:15:57.590Z,52.20
2019-05-26T00:19:05.581Z,53.97
2019-05-26T00:22:13.532Z,54.80
2019-05-26T00:25:21.700Z,54.13
2019-05-26T00:28:30.518Z,54.53
2019-05-26T00:31:38.148Z,54.73
2019-05-26T00:34:47.362Z,54.37
2019-05-26T00:37:55.228Z,50.97
2019-05-26T00:41:03.312Z,48.60
2019-05-26T00:44:11.182Z,51.47
2019-05-26T00:47:19.040Z,51.93
2019-05-26T00:50:26.986Z,52.80
2019-05-26T00:53:35.235Z,50.67
2019-05-26T00:56:43.533Z,55.93
2019-05-26T00:59:51.096Z,48.47
2019-05-26T01:02:58.776Z,49.87
2019-05-26T01:06:06.660Z,48.90
2019-05-26T01:09:14.685Z,49.37
2019-05-26T01:12:22.415Z,51.13
2019-05-26T01:15:31.462Z,49.13
2019-05-26T01:18:39.312Z,49.20
2019-05-26T01:21:47.045Z,48.07
2019-05-26T01:24:54.921Z,46.67
2019-05-26T01:28:02.961Z,48.93
2019-05-26T01:31:11.016Z,47.67
2019-05-26T01:34:21.933Z,47.73
2019-05-26T01:37:29.659Z,46.33
2019-05-26T01:40:42.461Z,52.10
2019-05-26T01:43:50.235Z,49.40
2019-05-26T01:46:58.203Z,49.07
2019-05-26T01:50:06.199Z,49.23
2019-05-26T01:53:14.194Z,51.73
2019-05-26T01:56:22.113Z,53.70
2019-05-26T01:59:29.977Z,54.43
2019-05-26T02:02:37.726Z,56.03
2019-05-26T02:05:45.679Z,54.17
2019-05-26T02:08:55.661Z,53.37
2019-05-26T02:12:03.888Z,51.13
2019-05-26T02:15:12.009Z,53.37
2019-05-26T02:18:22.637Z,54.43
2019-05-26T02:21:30.598Z,53.77
2019-05-26T02:24:39.860Z,67.20
2019-05-26T02:27:48.069Z,61.90
2019-05-26T02:30:57.093Z,55.63
2019-05-26T02:34:07.988Z,54.57
2019-05-26T02:37:16.088Z,58.53
2019-05-26T02:40:24.610Z,57.23
2019-05-26T02:43:32.820Z,59.07
2019-05-26T02:46:40.677Z,61.87
2019-05-26T02:49:50.675Z,59.63
2019-05-26T02:52:58.928Z,54.70
2019-05-26T02:56:07.136Z,56.73
2019-05-26T02:59:15.271Z,53.73
2019-05-26T03:02:23.227Z,56.27
2019-05-26T03:05:32.779Z,59.77
2019-05-26T03:08:41.465Z,55.10
2019-05-26T03:11:50.950Z,57.17
2019-05-26T03:15:00.474Z,53.57
2019-05-26T03:18:08.319Z,51.87
2019-05-26T03:21:20.638Z,50.53
2019-05-26T03:24:32.381Z,55.77
2019-05-26T03:27:40.200Z,50.23
2019-05-26T03:30:48.129Z,56.43
2019-05-26T03:33:57.667Z,54.67
2019-05-26T03:37:05.553Z,52.20
2019-05-26T03:40:13.565Z,52.17
2019-05-26T03:43:23.310Z,53.43
2019-05-26T03:46:30.865Z,54.20
2019-05-26T03:49:38.432Z,50.27
2019-05-26T03:52:47.848Z,49.07
2019-05-26T03:55:55.890Z,49.03
2019-05-26T03:59:03.409Z,51.50
2019-05-26T04:02:12.227Z,46.70
2019-05-26T04:05:20.153Z,42.10
2019-05-26T04:08:28.126Z,41.07
2019-05-26T04:11:36.022Z,43.77
2019-05-26T04:14:43.526Z,38.03
2019-05-26T04:17:51.374Z,33.30
2019-05-26T04:20:59.154Z,35.60
2019-05-26T04:24:06.889Z,38.70
2019-05-26T04:27:14.680Z,36.17
2019-05-26T04:30:22.430Z,32.50
2019-05-26T04:33:30.207Z,31.40
2019-05-26T04:36:37.946Z,30.17
2019-05-26T04:39:50.184Z,34.33
2019-05-26T04:42:57.995Z,32.43
2019-05-26T04:46:06.153Z,32.47
2019-05-26T04:49:13.803Z,31.87
2019-05-26T04:52:21.590Z,31.27
2019-05-26T04:55:29.483Z,33.10
2019-05-26T04:58:37.161Z,30.07
2019-05-26T05:01:44.895Z,31.53
2019-05-26T05:04:53.027Z,28.53
2019-05-26T05:08:00.942Z,29.87
2019-05-26T05:11:12.388Z,26.50
2019-05-26T05:14:20.164Z,28.40
2019-05-26T05:17:27.963Z,24.90
2019-05-26T05:20:35.708Z,29.13
2019-05-26T05:23:43.651Z,25.60
2019-05-26T05:26:51.263Z,26.80
2019-05-26T05:29:59.456Z,26.00
2019-05-26T05:33:07.405Z,26.73
2019-05-26T05:36:16.910Z,25.40
2019-05-26T05:39:27.179Z,26.20
2019-05-26T05:42:35.241Z,25.27
2019-05-26T05:45:42.912Z,26.33
2019-05-26T05:48:50.422Z,26.23
2019-05-26T05:51:58.130Z,25.73
2019-05-26T05:55:07.258Z,28.17
2019-05-26T05:58:14.990Z,26.90
2019-05-26T06:01:25.803Z,25.93
2019-05-26T06:04:33.943Z,26.03
2019-05-26T06:07:41.665Z,25.80
2019-05-26T06:10:49.374Z,26.37
2019-05-26T06:13:57.287Z,28.33
2019-05-26T06:17:05.220Z,28.40
2019-05-26T06:20:13.775Z,25.67
2019-05-26T06:23:21.675Z,26.90
2019-05-26T06:26:29.252Z,24.97
2019-05-26T06:29:38.640Z,25.73
2019-05-26T06:32:46.753Z,22.23
2019-05-26T06:35:54.279Z,28.10
2019-05-26T06:39:03.240Z,24.20
2019-05-26T06:42:13.295Z,21.07
2019-05-26T06:45:22.515Z,22.27
2019-05-26T06:48:30.638Z,21.53
2019-05-26T06:51:38.347Z,23.20
2019-05-26T06:54:47.607Z,22.10
2019-05-26T06:57:56.003Z,20.87
2019-05-26T07:01:03.882Z,20.47
2019-05-26T07:04:12.217Z,21.83
2019-05-26T07:07:23.647Z,19.77
2019-05-26T07:10:31.715Z,17.87
2019-05-26T07:13:39.378Z,10.40
2019-05-26T07:16:49.183Z,6.13
2019-05-26T07:19:57.388Z,12.43
2019-05-26T07:23:07.079Z,13.10
2019-05-26T07:26:15.161Z,12.17
2019-05-26T07:29:23.375Z,14.13
2019-05-26T07:32:31.164Z,10.43
2019-05-26T07:35:39.409Z,8.50
2019-05-26T07:38:50.689Z,9.77
2019-05-26T07:42:09.990Z,12.27
2019-05-26T07:45:11.658Z,13.30
2019-05-26T07:48:20.293Z,10.20
2019-05-26T07:51:28.705Z,12.93
2019-05-26T07:54:38.322Z,14.73
2019-05-26T07:57:47.278Z,10.47
2019-05-26T08:00:55.267Z,10.97
2019-05-26T08:04:03.443Z,13.00
2019-05-26T08:07:11.759Z,14.83
2019-05-26T08:10:19.591Z,18.33
2019-05-26T08:13:27.928Z,12.00
2019-05-26T08:16:39.139Z,12.33
2019-05-26T08:19:48.083Z,9.93
2019-05-26T08:22:56.373Z,10.77
2019-05-26T08:26:05.508Z,11.47
2019-05-26T08:29:15.201Z,8.63
2019-05-26T08:32:23.541Z,10.33
2019-05-26T08:35:32.194Z,14.83
2019-05-26T08:38:40.478Z,10.17
2019-05-26T08:41:48.651Z,9.97
2019-05-26T08:44:56.941Z,11.00
2019-05-26T08:48:05.074Z,11.38
2019-05-26T08:51:13.130Z,20.10
2019-05-26T08:54:21.306Z,12.90
2019-05-26T08:57:30.124Z,12.27
2019-05-26T09:00:38.621Z,14.10
2019-05-26T09:03:47.135Z,12.17
2019-05-26T09:06:54.907Z,14.53
2019-05-26T09:10:03.197Z,12.00
2019-05-26T09:13:11.715Z,15.90
2019-05-26T09:16:19.596Z,12.33
2019-05-26T09:19:27.170Z,10.90
2019-05-26T09:22:34.607Z,9.87
2019-05-26T09:25:42.284Z,11.40
2019-05-26T09:28:49.813Z,10.70
2019-05-26T09:31:57.354Z,10.83
2019-05-26T09:35:05.524Z,11.67
2019-05-26T09:38:13.093Z,10.60
2019-05-26T09:41:20.873Z,10.20
2019-05-26T09:44:28.517Z,9.40
2019-05-26T09:47:36.167Z,9.60
2019-05-26T09:50:43.715Z,12.07
2019-05-26T09:54:01.331Z,9.50
2019-05-26T09:57:00.866Z,11.90
2019-05-26T10:00:09.247Z,11.53
2019-05-26T10:03:17.005Z,10.07
2019-05-26T10:06:25.176Z,10.50
2019-05-26T10:09:33.097Z,11.17
2019-05-26T10:12:40.929Z,11.97
2019-05-26T10:15:49.107Z,8.97
2019-05-26T10:18:56.946Z,8.70
2019-05-26T10:22:04.893Z,8.70
2019-05-26T10:25:13.874Z,15.10
2019-05-26T10:28:21.355Z,8.87
2019-05-26T10:31:28.796Z,9.63
2019-05-26T10:34:36.211Z,7.97
2019-05-26T10:37:43.814Z,8.47
2019-05-26T10:40:51.314Z,11.10
2019-05-26T10:43:58.836Z,9.00
2019-05-26T10:47:06.538Z,7.70
2019-05-26T10:50:15.797Z,8.03
2019-05-26T10:53:23.322Z,9.00
2019-05-26T10:56:30.799Z,6.90
2019-05-26T10:59:38.473Z,7.53
2019-05-26T11:02:46.033Z,7.53
2019-05-26T11:05:53.588Z,7.00
2019-05-26T11:09:01.148Z,9.90
2019-05-26T11:12:10.192Z,7.30
2019-05-26T11:15:18.068Z,7.60
2019-05-26T11:18:25.717Z,8.27
2019-05-26T11:21:33.262Z,8.27
2019-05-26T11:24:40.752Z,7.37
2019-05-26T11:27:48.400Z,7.33
2019-05-26T11:30:55.955Z,7.60
2019-05-26T11:34:03.440Z,6.90
2019-05-26T11:37:10.876Z,7.50
2019-05-26T11:40:18.610Z,7.50
2019-05-26T11:43:26.263Z,7.20
2019-05-26T11:46:33.913Z,5.77
2019-05-26T11:49:41.600Z,7.03
2019-05-26T11:52:49.481Z,9.53
2019-05-26T11:55:57.678Z,6.47
2019-05-26T11:59:06.153Z,11.27
2019-05-26T12:02:13.782Z,18.90
2019-05-26T12:05:21.598Z,16.53
2019-05-26T12:08:29.058Z,6.47
2019-05-26T12:11:36.612Z,6.90
2019-05-26T12:14:44.113Z,6.47
2019-05-26T12:17:51.644Z,6.73
2019-05-26T12:20:59.206Z,6.90
2019-05-26T12:24:07.704Z,20.27
2019-05-26T12:27:15.304Z,8.60
2019-05-26T12:30:24.269Z,8.97
2019-05-26T12:33:31.758Z,8.00
2019-05-26T12:36:39.619Z,5.73
2019-05-26T12:39:47.472Z,6.80
2019-05-26T12:42:54.977Z,6.40
2019-05-26T12:46:02.871Z,8.20
2019-05-26T12:49:10.645Z,6.13
2019-05-26T12:52:18.296Z,7.63
2019-05-26T12:55:26.778Z,6.50
2019-05-26T12:58:34.414Z,9.80
2019-05-26T13:01:42.579Z,7.03
2019-05-26T13:04:50.234Z,11.00
2019-05-26T13:07:57.880Z,7.60
2019-05-26T13:11:05.451Z,8.00
2019-05-26T13:14:12.932Z,6.90
2019-05-26T13:17:20.392Z,6.50
2019-05-26T13:20:28.031Z,6.90
2019-05-26T13:23:35.728Z,6.70
2019-05-26T13:26:43.478Z,6.93
2019-05-26T13:29:50.965Z,5.90
2019-05-26T13:32:58.643Z,7.07
2019-05-26T13:36:06.946Z,7.50
2019-05-26T13:39:14.471Z,6.93
2019-05-26T13:42:21.908Z,8.03
2019-05-26T13:45:29.654Z,6.60
2019-05-26T13:48:37.259Z,7.27
2019-05-26T13:51:45.483Z,8.63
2019-05-26T13:54:54.032Z,6.30
2019-05-26T13:58:01.826Z,6.27
2019-05-26T14:01:09.558Z,5.80
2019-05-26T14:04:17.014Z,7.37
2019-05-26T14:07:24.658Z,7.50
2019-05-26T14:10:34.298Z,9.10
2019-05-26T14:13:41.778Z,6.97
2019-05-26T14:16:52.524Z,7.10
2019-05-26T14:20:02.543Z,6.13
2019-05-26T14:23:10.857Z,8.07
2019-05-26T14:26:18.361Z,7.20
2019-05-26T14:29:25.818Z,6.77
2019-05-26T14:32:33.322Z,6.83
2019-05-26T14:35:41.826Z,9.63
2019-05-26T14:38:49.356Z,7.13
2019-05-26T14:41:57.370Z,6.23
2019-05-26T14:45:05.544Z,6.50
2019-05-26T14:48:14.082Z,6.83
2019-05-26T14:51:21.551Z,8.80
2019-05-26T14:54:29.052Z,7.50
2019-05-26T14:57:36.524Z,6.20
2019-05-26T15:00:44.107Z,6.90
2019-05-26T15:03:51.604Z,7.20
2019-05-26T15:06:59.133Z,7.83
2019-05-26T15:10:06.921Z,7.40
2019-05-26T15:13:14.410Z,6.57
2019-05-26T15:16:21.866Z,9.03
2019-05-26T15:19:29.434Z,7.03
2019-05-26T15:22:37.267Z,7.13
2019-05-26T15:25:44.734Z,6.30
2019-05-26T15:28:52.268Z,7.03
2019-05-26T15:32:02.739Z,6.30
2019-05-26T15:35:10.698Z,6.83
2019-05-26T15:38:18.427Z,6.63
2019-05-26T15:41:26.040Z,6.40
2019-05-26T15:44:33.496Z,6.20
2019-05-26T15:47:41.026Z,6.67
2019-05-26T15:50:48.544Z,9.70
2019-05-26T15:53:56.064Z,10.33
2019-05-26T15:57:03.646Z,8.80
2019-05-26T16:00:11.527Z,6.97
2019-05-26T16:03:19.042Z,6.87
2019-05-26T16:06:26.484Z,6.03
2019-05-26T16:09:34.071Z,5.97
2019-05-26T16:12:41.542Z,6.27
2019-05-26T16:15:49.070Z,5.73
2019-05-26T16:18:56.533Z,5.20
2019-05-26T16:22:04.023Z,7.80
2019-05-26T16:25:11.726Z,6.00
2019-05-26T16:28:19.248Z,5.27
2019-05-26T16:31:26.782Z,4.50
2019-05-26T16:34:34.474Z,5.67
2019-05-26T16:37:41.966Z,5.17
2019-05-26T16:40:49.567Z,6.40
2019-05-26T16:43:57.189Z,5.50
2019-05-26T16:47:04.699Z,5.80
2019-05-26T16:50:12.366Z,8.93
2019-05-26T16:53:19.834Z,5.20
2019-05-26T16:56:27.271Z,5.13
2019-05-26T16:59:36.441Z,4.90
2019-05-26T17:02:43.990Z,4.93
2019-05-26T17:06:06.821Z,6.00
2019-05-26T17:09:01.035Z,5.57
2019-05-26T17:12:10.088Z,6.43
2019-05-26T17:15:17.640Z,6.50
2019-05-26T17:18:25.068Z,6.13
2019-05-26T17:21:32.746Z,6.63
2019-05-26T17:24:40.328Z,6.30
2019-05-26T17:27:47.937Z,6.87
2019-05-26T17:30:55.699Z,5.93
2019-05-26T17:34:04.205Z,9.60
2019-05-26T17:37:11.637Z,6.97
2019-05-26T17:40:20.671Z,8.97
2019-05-26T17:43:28.167Z,7.17
2019-05-26T17:46:35.599Z,8.03
2019-05-26T17:49:43.054Z,6.90
2019-05-26T17:52:51.677Z,7.87
2019-05-26T17:55:59.099Z,7.83
2019-05-26T17:59:06.692Z,10.13
2019-05-26T18:02:14.219Z,8.73
2019-05-26T18:05:21.783Z,10.70
2019-05-26T18:08:29.356Z,11.80
2019-05-26T18:11:38.065Z,9.57
2019-05-26T18:14:45.637Z,10.43
2019-05-26T18:17:53.166Z,9.30
2019-05-26T18:21:00.709Z,11.80
2019-05-26T18:24:08.158Z,8.80
2019-05-26T18:27:15.655Z,13.37
2019-05-26T18:30:23.277Z,9.90
2019-05-26T18:33:30.883Z,10.43
2019-05-26T18:36:38.369Z,11.53
2019-05-26T18:39:45.899Z,10.80
2019-05-26T18:42:53.812Z,11.50
2019-05-26T18:46:01.278Z,9.50
2019-05-26T18:49:09.166Z,9.30
2019-05-26T18:52:16.817Z,10.03
2019-05-26T18:55:24.386Z,10.00
2019-05-26T18:58:31.983Z,17.00
2019-05-26T19:01:39.610Z,12.30
2019-05-26T19:04:47.263Z,15.93
2019-05-26T19:07:54.881Z,15.10
2019-05-26T19:11:02.433Z,19.10
2019-05-26T19:14:10.215Z,15.23
2019-05-26T19:17:18.331Z,21.93
2019-05-26T19:20:25.873Z,42.40
2019-05-26T19:23:33.409Z,37.53
2019-05-26T19:26:41.041Z,27.87
2019-05-26T19:29:48.643Z,23.40
2019-05-26T19:32:56.096Z,16.43
2019-05-26T19:36:08.841Z,20.57
2019-05-26T19:39:12.931Z,21.10
2019-05-26T19:42:20.585Z,13.33
2019-05-26T19:45:28.468Z,12.17
2019-05-26T19:48:37.328Z,12.97
2019-05-26T19:51:45.461Z,15.17
2019-05-26T19:54:53.100Z,14.63
2019-05-26T19:58:00.933Z,16.10
2019-05-26T20:01:08.504Z,13.27
2019-05-26T20:04:16.702Z,14.83
2019-05-26T20:07:24.190Z,15.40
2019-05-26T20:10:31.767Z,15.40
2019-05-26T20:13:39.399Z,15.93
2019-05-26T20:16:46.967Z,14.77
2019-05-26T20:19:54.517Z,16.80
2019-05-26T20:23:01.948Z,35.13
2019-05-26T20:26:09.494Z,39.30
2019-05-26T20:29:17.290Z,31.27
2019-05-26T20:32:24.913Z,24.40
2019-05-26T20:35:32.545Z,21.73
2019-05-26T20:38:40.027Z,17.97
2019-05-26T20:41:47.478Z,21.63
2019-05-26T20:44:56.533Z,20.70
2019-05-26T20:48:04.109Z,18.67
2019-05-26T20:51:11.519Z,17.43
2019-05-26T20:54:19.084Z,18.53
2019-05-26T20:57:26.518Z,19.13
2019-05-26T21:00:33.957Z,18.87
2019-05-26T21:03:41.471Z,16.40
2019-05-26T21:06:48.935Z,17.37
2019-05-26T21:09:56.434Z,18.80
2019-05-26T21:13:03.867Z,16.97
2019-05-26T21:16:11.297Z,17.67
2019-05-26T21:19:18.761Z,17.70
2019-05-26T21:22:26.191Z,29.63
2019-05-26T21:25:33.660Z,32.33
2019-05-26T21:28:41.608Z,29.03
2019-05-26T21:31:49.047Z,21.93
2019-05-26T21:34:56.599Z,18.90
2019-05-26T21:38:04.035Z,18.10
2019-05-26T21:41:11.637Z,18.30
2019-05-26T21:44:19.059Z,18.50
2019-05-26T21:47:26.619Z,20.20
2019-05-26T21:50:34.136Z,17.47
2019-05-26T21:53:41.567Z,18.30
2019-05-26T21:56:48.993Z,23.03
2019-05-26T21:59:56.441Z,18.07
2019-05-26T22:03:03.927Z,16.70
2019-05-26T22:06:11.504Z,16.93
2019-05-26T22:09:19.237Z,19.40
2019-05-26T22:12:27.145Z,15.90
2019-05-26T22:15:34.628Z,15.67
2019-05-26T22:18:42.154Z,15.30
2019-05-26T22:21:49.587Z,15.73
2019-05-26T22:24:57.278Z,14.70
2019-05-26T22:28:04.778Z,15.10
2019-05-26T22:31:13.305Z,15.60
2019-05-26T22:34:20.755Z,15.43
2019-05-26T22:37:28.255Z,14.17
2019-05-26T22:40:35.760Z,14.80
2019-05-26T22:43:43.202Z,15.30
2019-05-26T22:46:51.080Z,17.37
2019-05-26T22:50:01.141Z,16.13
2019-05-26T22:53:08.668Z,16.17
2019-05-26T22:56:16.237Z,17.73
2019-05-26T22:59:23.774Z,18.70
2019-05-26T23:02:31.258Z,18.13
2019-05-26T23:05:40.970Z,18.60
2019-05-26T23:08:48.446Z,16.77
2019-05-26T23:11:55.975Z,21.43
2019-05-26T23:15:03.597Z,17.20
2019-05-26T23:18:11.172Z,19.87
2019-05-26T23:21:18.602Z,16.47
2019-05-26T23:24:26.123Z,17.93
2019-05-26T23:27:33.563Z,16.07
2019-05-26T23:30:41.215Z,16.40
2019-05-26T23:33:48.739Z,16.23
2019-05-26T23:36:57.819Z,18.40
2019-05-26T23:40:06.292Z,17.20
2019-05-26T23:43:13.866Z,17.57
2019-05-26T23:46:21.267Z,16.00
2019-05-26T23:49:28.707Z,17.00
2019-05-26T23:52:36.202Z,15.63
2019-05-26T23:55:43.623Z,15.87
2019-05-26T23:58:51.115Z,16.10
